sensor_id;sensor_type;location;lat;lon;timestamp;P1;durP1;ratioP1;P2;durP2;ratioP2
51216;SDS011;37283;49.760;8.648;2022-12-07T01:05:36;12.45;;;9.93;;
51216;SDS011;37283;49.760;8.648;2022-12-07T07:39:13;12.65;;;9.30;;
51216;SDS011;37283;49.760;8.648;2022-12-07T07:41:39;14.00;;;10.10;;
51216;SDS011;37283;49.760;8.648;2022-12-07T07:44:11;11.82;;;9.95;;
51216;SDS011;37283;49.760;8.648;2022-12-07T07:46:38;13.80;;;10.60;;
51216;SDS011;37283;49.760;8.648;2022-12-07T07:49:05;14.20;;;10.40;;
51216;SDS011;37283;49.760;8.648;2022-12-07T07:51:31;12.55;;;9.40;;
51216;SDS011;37283;49.760;8.648;2022-12-07T07:53:58;12.63;;;9.75;;
51216;SDS011;37283;49.760;8.648;2022-12-07T07:56:24;12.32;;;9.60;;
51216;SDS011;37283;49.760;8.648;2022-12-07T07:58:51;14.23;;;9.63;;
51216;SDS011;37283;49.760;8.648;2022-12-07T08:01:19;12.18;;;9.48;;
51216;SDS011;37283;49.760;8.648;2022-12-07T08:03:46;13.88;;;9.55;;
51216;SDS011;37283;49.760;8.648;2022-12-07T08:06:13;13.98;;;9.98;;
51216;SDS011;37283;49.760;8.648;2022-12-07T08:08:39;13.75;;;9.85;;
51216;SDS011;37283;49.760;8.648;2022-12-07T08:11:06;15.25;;;10.00;;
51216;SDS011;37283;49.760;8.648;2022-12-07T08:13:34;15.85;;;10.85;;
51216;SDS011;37283;49.760;8.648;2022-12-07T08:16:05;15.13;;;10.68;;
51216;SDS011;37283;49.760;8.648;2022-12-07T08:18:36;13.00;;;10.20;;
51216;SDS011;37283;49.760;8.648;2022-12-07T08:21:03;13.88;;;10.63;;
51216;SDS011;37283;49.760;8.648;2022-12-07T08:23:30;15.50;;;11.20;;
51216;SDS011;37283;49.760;8.648;2022-12-07T08:26:09;16.15;;;11.30;;
51216;SDS011;37283;49.760;8.648;2022-12-07T08:28:36;14.23;;;10.65;;
51216;SDS011;37283;49.760;8.648;2022-12-07T08:31:03;14.45;;;10.80;;
51216;SDS011;37283;49.760;8.648;2022-12-07T08:33:35;13.20;;;9.85;;
51216;SDS011;37283;49.760;8.648;2022-12-07T08:36:05;12.38;;;10.23;;
51216;SDS011;37283;49.760;8.648;2022-12-07T08:38:34;14.20;;;10.27;;
51216;SDS011;37283;49.760;8.648;2022-12-07T08:41:01;13.95;;;9.82;;
51216;SDS011;37283;49.760;8.648;2022-12-07T08:43:28;16.23;;;11.20;;
51216;SDS011;37283;49.760;8.648;2022-12-07T08:48:37;14.63;;;9.35;;
51216;SDS011;37283;49.760;8.648;2022-12-07T08:51:14;13.80;;;9.60;;
51216;SDS011;37283;49.760;8.648;2022-12-07T08:53:40;14.05;;;10.20;;
51216;SDS011;37283;49.760;8.648;2022-12-07T08:56:07;11.77;;;9.40;;
51216;SDS011;37283;49.760;8.648;2022-12-07T08:58:33;15.65;;;10.43;;
51216;SDS011;37283;49.760;8.648;2022-12-07T09:01:00;13.18;;;10.35;;
51216;SDS011;37283;49.760;8.648;2022-12-07T09:03:27;12.32;;;9.70;;
51216;SDS011;37283;49.760;8.648;2022-12-07T09:05:53;13.20;;;9.80;;
51216;SDS011;37283;49.760;8.648;2022-12-07T09:08:21;14.68;;;10.73;;
51216;SDS011;37283;49.760;8.648;2022-12-07T09:10:49;15.40;;;10.82;;
51216;SDS011;37283;49.760;8.648;2022-12-07T09:13:15;14.30;;;10.35;;
51216;SDS011;37283;49.760;8.648;2022-12-07T09:15:42;14.25;;;10.60;;
51216;SDS011;37283;49.760;8.648;2022-12-07T09:18:08;16.23;;;10.25;;
51216;SDS011;37283;49.760;8.648;2022-12-07T09:20:35;13.38;;;10.48;;
51216;SDS011;37283;49.760;8.648;2022-12-07T09:23:01;16.08;;;10.55;;
51216;SDS011;37283;49.760;8.648;2022-12-07T09:25:27;14.07;;;10.73;;
51216;SDS011;37283;49.760;8.648;2022-12-07T09:27:57;13.82;;;10.43;;
51216;SDS011;37283;49.760;8.648;2022-12-07T09:30:24;12.82;;;10.48;;
51216;SDS011;37283;49.760;8.648;2022-12-07T09:32:52;13.77;;;10.02;;
51216;SDS011;37283;49.760;8.648;2022-12-07T09:35:20;14.80;;;9.90;;
51216;SDS011;37283;49.760;8.648;2022-12-07T09:37:46;13.35;;;9.98;;
51216;SDS011;37283;49.760;8.648;2022-12-07T09:40:13;13.98;;;10.20;;
51216;SDS011;37283;49.760;8.648;2022-12-07T09:42:41;13.43;;;10.80;;
51216;SDS011;37283;49.760;8.648;2022-12-07T09:45:19;14.02;;;10.13;;
51216;SDS011;37283;49.760;8.648;2022-12-07T09:47:51;13.48;;;10.38;;
51216;SDS011;37283;49.760;8.648;2022-12-07T09:50:22;14.00;;;10.40;;
51216;SDS011;37283;49.760;8.648;2022-12-07T09:52:51;14.43;;;11.30;;
51216;SDS011;37283;49.760;8.648;2022-12-07T09:55:19;13.95;;;10.63;;
51216;SDS011;37283;49.760;8.648;2022-12-07T09:57:49;13.63;;;11.15;;
51216;SDS011;37283;49.760;8.648;2022-12-07T10:00:18;15.40;;;10.55;;
51216;SDS011;37283;49.760;8.648;2022-12-07T10:02:49;14.90;;;11.07;;
51216;SDS011;37283;49.760;8.648;2022-12-07T10:05:24;14.88;;;11.25;;
51216;SDS011;37283;49.760;8.648;2022-12-07T10:07:54;12.10;;;10.43;;
51216;SDS011;37283;49.760;8.648;2022-12-07T10:10:25;12.65;;;10.05;;
51216;SDS011;37283;49.760;8.648;2022-12-07T10:13:06;14.85;;;9.48;;
51216;SDS011;37283;49.760;8.648;2022-12-07T10:15:43;14.60;;;10.55;;
51216;SDS011;37283;49.760;8.648;2022-12-07T10:23:43;13.68;;;10.25;;
51216;SDS011;37283;49.760;8.648;2022-12-07T10:28:55;14.33;;;10.33;;
51216;SDS011;37283;49.760;8.648;2022-12-07T10:31:22;18.08;;;11.75;;
51216;SDS011;37283;49.760;8.648;2022-12-07T10:36:24;14.85;;;10.40;;
51216;SDS011;37283;49.760;8.648;2022-12-07T10:38:53;13.45;;;9.98;;
51216;SDS011;37283;49.760;8.648;2022-12-07T10:41:25;13.50;;;10.55;;
51216;SDS011;37283;49.760;8.648;2022-12-07T10:43:53;13.30;;;10.00;;
51216;SDS011;37283;49.760;8.648;2022-12-07T11:02:37;14.23;;;10.27;;
51216;SDS011;37283;49.760;8.648;2022-12-07T11:10:42;14.30;;;9.68;;
51216;SDS011;37283;49.760;8.648;2022-12-07T11:21:57;12.30;;;8.55;;
51216;SDS011;37283;49.760;8.648;2022-12-07T11:24:27;12.55;;;8.68;;
51216;SDS011;37283;49.760;8.648;2022-12-07T11:27:30;13.80;;;8.85;;
51216;SDS011;37283;49.760;8.648;2022-12-07T11:30:08;13.52;;;9.68;;
51216;SDS011;37283;49.760;8.648;2022-12-07T11:33:02;12.77;;;9.45;;
51216;SDS011;37283;49.760;8.648;2022-12-07T11:35:31;10.73;;;8.30;;
51216;SDS011;37283;49.760;8.648;2022-12-07T11:40:50;13.45;;;8.07;;
51216;SDS011;37283;49.760;8.648;2022-12-07T11:43:20;13.02;;;8.25;;
51216;SDS011;37283;49.760;8.648;2022-12-07T11:45:52;15.93;;;8.85;;
51216;SDS011;37283;49.760;8.648;2022-12-07T11:48:24;11.70;;;7.93;;
51216;SDS011;37283;49.760;8.648;2022-12-07T11:50:57;12.65;;;7.18;;
51216;SDS011;37283;49.760;8.648;2022-12-07T11:53:26;12.75;;;7.28;;
51216;SDS011;37283;49.760;8.648;2022-12-07T11:55:56;9.43;;;6.75;;
51216;SDS011;37283;49.760;8.648;2022-12-07T12:01:28;10.60;;;7.03;;
51216;SDS011;37283;49.760;8.648;2022-12-07T12:04:06;10.05;;;6.22;;
51216;SDS011;37283;49.760;8.648;2022-12-07T12:06:38;9.88;;;6.00;;
51216;SDS011;37283;49.760;8.648;2022-12-07T12:09:10;11.88;;;6.22;;
51216;SDS011;37283;49.760;8.648;2022-12-07T12:15:23;12.35;;;6.63;;
51216;SDS011;37283;49.760;8.648;2022-12-07T12:17:59;9.48;;;5.93;;
51216;SDS011;37283;49.760;8.648;2022-12-07T12:20:35;9.25;;;6.13;;
51216;SDS011;37283;49.760;8.648;2022-12-07T12:23:23;8.50;;;5.15;;
51216;SDS011;37283;49.760;8.648;2022-12-07T12:25:55;11.65;;;6.35;;
51216;SDS011;37283;49.760;8.648;2022-12-07T12:31:07;15.82;;;8.82;;
51216;SDS011;37283;49.760;8.648;2022-12-07T12:33:53;11.63;;;5.25;;
51216;SDS011;37283;49.760;8.648;2022-12-07T12:44:38;11.35;;;6.53;;
51216;SDS011;37283;49.760;8.648;2022-12-07T12:47:38;8.57;;;6.10;;
51216;SDS011;37283;49.760;8.648;2022-12-07T12:50:24;9.52;;;5.38;;
51216;SDS011;37283;49.760;8.648;2022-12-07T12:58:42;8.27;;;4.43;;
51216;SDS011;37283;49.760;8.648;2022-12-07T13:04:25;7.55;;;3.47;;
51216;SDS011;37283;49.760;8.648;2022-12-07T13:06:55;9.20;;;3.70;;
51216;SDS011;37283;49.760;8.648;2022-12-07T13:09:23;6.90;;;3.83;;
51216;SDS011;37283;49.760;8.648;2022-12-07T13:11:55;6.82;;;3.53;;
51216;SDS011;37283;49.760;8.648;2022-12-07T13:19:59;7.80;;;3.67;;
51216;SDS011;37283;49.760;8.648;2022-12-07T13:27:24;6.13;;;3.28;;
51216;SDS011;37283;49.760;8.648;2022-12-07T13:29:51;6.95;;;3.80;;
51216;SDS011;37283;49.760;8.648;2022-12-07T13:32:23;8.15;;;3.47;;
51216;SDS011;37283;49.760;8.648;2022-12-07T13:34:51;6.85;;;3.30;;
51216;SDS011;37283;49.760;8.648;2022-12-07T13:39:44;8.40;;;3.38;;
51216;SDS011;37283;49.760;8.648;2022-12-07T13:42:36;4.55;;;2.47;;
51216;SDS011;37283;49.760;8.648;2022-12-07T13:45:20;4.78;;;2.70;;
51216;SDS011;37283;49.760;8.648;2022-12-07T13:47:49;6.18;;;3.42;;
51216;SDS011;37283;49.760;8.648;2022-12-07T13:50:23;6.97;;;3.10;;
51216;SDS011;37283;49.760;8.648;2022-12-07T13:52:55;5.95;;;2.70;;
51216;SDS011;37283;49.760;8.648;2022-12-07T13:55:22;7.47;;;2.95;;
51216;SDS011;37283;49.760;8.648;2022-12-07T13:57:49;4.70;;;2.53;;
51216;SDS011;37283;49.760;8.648;2022-12-07T14:00:23;7.65;;;2.60;;
51216;SDS011;37283;49.760;8.648;2022-12-07T14:03:00;4.50;;;2.70;;
51216;SDS011;37283;49.760;8.648;2022-12-07T14:06:02;7.43;;;2.75;;
51216;SDS011;37283;49.760;8.648;2022-12-07T14:08:31;8.55;;;3.10;;
51216;SDS011;37283;49.760;8.648;2022-12-07T14:10:58;5.47;;;2.35;;
51216;SDS011;37283;49.760;8.648;2022-12-07T14:13:35;5.88;;;2.55;;
51216;SDS011;37283;49.760;8.648;2022-12-07T14:22:21;5.78;;;3.03;;
51216;SDS011;37283;49.760;8.648;2022-12-07T14:24:50;17.13;;;9.32;;
51216;SDS011;37283;49.760;8.648;2022-12-07T14:27:18;14.60;;;8.05;;
51216;SDS011;37283;49.760;8.648;2022-12-07T14:29:46;11.13;;;5.22;;
51216;SDS011;37283;49.760;8.648;2022-12-07T14:32:17;8.60;;;3.97;;
51216;SDS011;37283;49.760;8.648;2022-12-07T14:34:53;7.60;;;3.60;;
51216;SDS011;37283;49.760;8.648;2022-12-07T14:37:20;5.50;;;3.03;;
51216;SDS011;37283;49.760;8.648;2022-12-07T14:39:47;10.73;;;4.07;;
51216;SDS011;37283;49.760;8.648;2022-12-07T14:42:13;9.05;;;3.70;;
51216;SDS011;37283;49.760;8.648;2022-12-07T14:44:40;6.90;;;3.53;;
51216;SDS011;37283;49.760;8.648;2022-12-07T14:47:08;7.95;;;3.95;;
51216;SDS011;37283;49.760;8.648;2022-12-07T14:49:57;6.75;;;3.58;;
51216;SDS011;37283;49.760;8.648;2022-12-07T14:52:30;7.03;;;3.22;;
51216;SDS011;37283;49.760;8.648;2022-12-07T14:55:26;9.30;;;3.65;;
51216;SDS011;37283;49.760;8.648;2022-12-07T14:57:54;8.18;;;2.90;;
51216;SDS011;37283;49.760;8.648;2022-12-07T15:00:22;5.25;;;2.65;;
51216;SDS011;37283;49.760;8.648;2022-12-07T15:02:49;6.00;;;2.85;;
51216;SDS011;37283;49.760;8.648;2022-12-07T15:05:17;7.18;;;2.92;;
51216;SDS011;37283;49.760;8.648;2022-12-07T15:07:44;7.53;;;2.97;;
51216;SDS011;37283;49.760;8.648;2022-12-07T15:10:16;5.88;;;2.70;;
51216;SDS011;37283;49.760;8.648;2022-12-07T15:12:50;4.05;;;2.40;;
51216;SDS011;37283;49.760;8.648;2022-12-07T15:15:16;5.60;;;2.45;;
51216;SDS011;37283;49.760;8.648;2022-12-07T15:17:43;5.05;;;2.28;;
51216;SDS011;37283;49.760;8.648;2022-12-07T15:20:11;4.55;;;2.17;;
51216;SDS011;37283;49.760;8.648;2022-12-07T15:22:39;4.40;;;2.30;;
51216;SDS011;37283;49.760;8.648;2022-12-07T15:25:06;7.30;;;3.95;;
51216;SDS011;37283;49.760;8.648;2022-12-07T15:27:33;4.07;;;2.30;;
51216;SDS011;37283;49.760;8.648;2022-12-07T15:30:01;9.32;;;3.90;;
51216;SDS011;37283;49.760;8.648;2022-12-07T15:32:27;7.45;;;3.15;;
51216;SDS011;37283;49.760;8.648;2022-12-07T15:34:54;5.78;;;2.30;;
51216;SDS011;37283;49.760;8.648;2022-12-07T15:37:20;6.50;;;2.70;;
51216;SDS011;37283;49.760;8.648;2022-12-07T15:39:46;7.90;;;2.90;;
51216;SDS011;37283;49.760;8.648;2022-12-07T15:42:13;5.28;;;3.20;;
51216;SDS011;37283;49.760;8.648;2022-12-07T15:44:39;6.25;;;3.03;;
51216;SDS011;37283;49.760;8.648;2022-12-07T15:47:24;7.32;;;3.13;;
51216;SDS011;37283;49.760;8.648;2022-12-07T15:49:51;5.38;;;2.72;;
51216;SDS011;37283;49.760;8.648;2022-12-07T15:52:17;6.13;;;2.72;;
51216;SDS011;37283;49.760;8.648;2022-12-07T15:54:45;7.60;;;2.92;;
51216;SDS011;37283;49.760;8.648;2022-12-07T15:57:13;8.73;;;3.10;;
51216;SDS011;37283;49.760;8.648;2022-12-07T15:59:39;7.38;;;3.10;;
51216;SDS011;37283;49.760;8.648;2022-12-07T16:02:07;7.10;;;3.15;;
51216;SDS011;37283;49.760;8.648;2022-12-07T16:04:35;7.10;;;3.25;;
51216;SDS011;37283;49.760;8.648;2022-12-07T16:07:01;3.97;;;2.58;;
51216;SDS011;37283;49.760;8.648;2022-12-07T16:09:28;5.45;;;3.10;;
51216;SDS011;37283;49.760;8.648;2022-12-07T16:11:54;5.80;;;2.67;;
51216;SDS011;37283;49.760;8.648;2022-12-07T16:14:21;6.97;;;3.10;;
51216;SDS011;37283;49.760;8.648;2022-12-07T16:16:48;7.68;;;3.22;;
51216;SDS011;37283;49.760;8.648;2022-12-07T16:19:14;6.03;;;2.95;;
51216;SDS011;37283;49.760;8.648;2022-12-07T16:21:41;6.30;;;2.83;;
51216;SDS011;37283;49.760;8.648;2022-12-07T16:24:08;5.35;;;2.63;;
51216;SDS011;37283;49.760;8.648;2022-12-07T16:26:36;5.82;;;2.90;;
51216;SDS011;37283;49.760;8.648;2022-12-07T16:29:02;8.38;;;2.80;;
51216;SDS011;37283;49.760;8.648;2022-12-07T16:31:29;7.15;;;2.90;;
51216;SDS011;37283;49.760;8.648;2022-12-07T16:33:56;12.35;;;6.38;;
51216;SDS011;37283;49.760;8.648;2022-12-07T16:36:24;17.75;;;7.07;;
51216;SDS011;37283;49.760;8.648;2022-12-07T16:39:11;8.27;;;4.45;;
51216;SDS011;37283;49.760;8.648;2022-12-07T16:41:38;7.50;;;3.35;;
51216;SDS011;37283;49.760;8.648;2022-12-07T16:44:05;8.65;;;3.20;;
51216;SDS011;37283;49.760;8.648;2022-12-07T16:46:32;5.63;;;3.00;;
51216;SDS011;37283;49.760;8.648;2022-12-07T16:49:00;9.40;;;2.90;;
51216;SDS011;37283;49.760;8.648;2022-12-07T16:51:26;5.57;;;3.08;;
51216;SDS011;37283;49.760;8.648;2022-12-07T16:53:53;6.72;;;2.70;;
51216;SDS011;37283;49.760;8.648;2022-12-07T16:56:20;5.20;;;3.30;;
51216;SDS011;37283;49.760;8.648;2022-12-07T16:58:46;4.80;;;2.63;;
51216;SDS011;37283;49.760;8.648;2022-12-07T17:01:15;5.40;;;3.00;;
51216;SDS011;37283;49.760;8.648;2022-12-07T17:03:44;6.93;;;3.95;;
51216;SDS011;37283;49.760;8.648;2022-12-07T17:06:21;6.82;;;3.50;;
51216;SDS011;37283;49.760;8.648;2022-12-07T17:08:48;11.02;;;3.67;;
51216;SDS011;37283;49.760;8.648;2022-12-07T17:11:20;5.22;;;3.45;;
51216;SDS011;37283;49.760;8.648;2022-12-07T17:13:48;5.38;;;3.85;;
51216;SDS011;37283;49.760;8.648;2022-12-07T17:16:34;8.73;;;4.40;;
51216;SDS011;37283;49.760;8.648;2022-12-07T17:19:05;9.10;;;4.68;;
51216;SDS011;37283;49.760;8.648;2022-12-07T17:21:32;8.05;;;4.95;;
51216;SDS011;37283;49.760;8.648;2022-12-07T17:23:59;10.40;;;5.43;;
51216;SDS011;37283;49.760;8.648;2022-12-07T17:26:26;7.97;;;4.68;;
51216;SDS011;37283;49.760;8.648;2022-12-07T17:29:00;10.07;;;6.03;;
51216;SDS011;37283;49.760;8.648;2022-12-07T17:31:26;6.25;;;4.18;;
51216;SDS011;37283;49.760;8.648;2022-12-07T17:33:53;7.60;;;4.50;;
51216;SDS011;37283;49.760;8.648;2022-12-07T17:36:20;7.25;;;4.30;;
51216;SDS011;37283;49.760;8.648;2022-12-07T17:38:51;8.98;;;4.93;;
51216;SDS011;37283;49.760;8.648;2022-12-07T17:41:22;9.00;;;4.55;;
51216;SDS011;37283;49.760;8.648;2022-12-07T17:44:13;7.25;;;4.70;;
51216;SDS011;37283;49.760;8.648;2022-12-07T17:46:42;7.88;;;4.90;;
51216;SDS011;37283;49.760;8.648;2022-12-07T17:49:09;10.68;;;5.00;;
51216;SDS011;37283;49.760;8.648;2022-12-07T17:51:35;8.38;;;4.85;;
51216;SDS011;37283;49.760;8.648;2022-12-07T17:54:21;9.98;;;4.90;;
51216;SDS011;37283;49.760;8.648;2022-12-07T17:56:47;8.15;;;4.95;;
51216;SDS011;37283;49.760;8.648;2022-12-07T17:59:14;11.95;;;5.05;;
51216;SDS011;37283;49.760;8.648;2022-12-07T18:01:41;9.27;;;5.63;;
51216;SDS011;37283;49.760;8.648;2022-12-07T18:04:08;14.20;;;5.78;;
51216;SDS011;37283;49.760;8.648;2022-12-07T18:06:34;8.77;;;5.18;;
51216;SDS011;37283;49.760;8.648;2022-12-07T18:09:02;9.77;;;4.72;;
51216;SDS011;37283;49.760;8.648;2022-12-07T18:11:29;6.85;;;5.28;;
51216;SDS011;37283;49.760;8.648;2022-12-07T18:13:55;7.47;;;5.20;;
51216;SDS011;37283;49.760;8.648;2022-12-07T18:16:22;8.95;;;5.38;;
51216;SDS011;37283;49.760;8.648;2022-12-07T18:18:51;7.18;;;5.13;;
51216;SDS011;37283;49.760;8.648;2022-12-07T18:21:24;9.52;;;5.75;;
51216;SDS011;37283;49.760;8.648;2022-12-07T18:23:53;8.18;;;5.20;;
51216;SDS011;37283;49.760;8.648;2022-12-07T18:26:21;10.05;;;5.00;;
51216;SDS011;37283;49.760;8.648;2022-12-07T18:28:49;10.18;;;5.47;;
51216;SDS011;37283;49.760;8.648;2022-12-07T18:31:16;8.55;;;5.40;;
51216;SDS011;37283;49.760;8.648;2022-12-07T18:33:43;6.03;;;4.80;;
51216;SDS011;37283;49.760;8.648;2022-12-07T18:36:10;8.70;;;4.93;;
51216;SDS011;37283;49.760;8.648;2022-12-07T18:38:37;8.02;;;4.70;;
51216;SDS011;37283;49.760;8.648;2022-12-07T18:41:08;8.45;;;5.47;;
51216;SDS011;37283;49.760;8.648;2022-12-07T18:43:37;7.25;;;4.82;;
51216;SDS011;37283;49.760;8.648;2022-12-07T18:46:19;5.75;;;4.13;;
51216;SDS011;37283;49.760;8.648;2022-12-07T18:48:46;6.65;;;4.30;;
51216;SDS011;37283;49.760;8.648;2022-12-07T18:51:16;10.98;;;4.95;;
51216;SDS011;37283;49.760;8.648;2022-12-07T18:53:43;7.68;;;4.60;;
51216;SDS011;37283;49.760;8.648;2022-12-07T18:56:28;7.85;;;4.75;;
51216;SDS011;37283;49.760;8.648;2022-12-07T18:58:58;7.85;;;4.85;;
51216;SDS011;37283;49.760;8.648;2022-12-07T19:01:46;10.02;;;5.18;;
51216;SDS011;37283;49.760;8.648;2022-12-07T19:04:15;8.90;;;5.50;;
51216;SDS011;37283;49.760;8.648;2022-12-07T19:06:42;8.80;;;5.63;;
51216;SDS011;37283;49.760;8.648;2022-12-07T19:09:10;8.63;;;5.55;;
51216;SDS011;37283;49.760;8.648;2022-12-07T19:11:38;8.13;;;5.38;;
51216;SDS011;37283;49.760;8.648;2022-12-07T19:17:13;8.98;;;5.30;;
51216;SDS011;37283;49.760;8.648;2022-12-07T19:19:43;8.68;;;5.50;;
51216;SDS011;37283;49.760;8.648;2022-12-07T19:22:14;8.43;;;5.68;;
51216;SDS011;37283;49.760;8.648;2022-12-07T19:24:43;8.27;;;5.50;;
51216;SDS011;37283;49.760;8.648;2022-12-07T19:29:39;9.52;;;6.18;;
51216;SDS011;37283;49.760;8.648;2022-12-07T19:32:06;9.30;;;6.68;;
51216;SDS011;37283;49.760;8.648;2022-12-07T19:34:37;9.13;;;6.55;;
51216;SDS011;37283;49.760;8.648;2022-12-07T19:37:04;10.50;;;6.70;;
51216;SDS011;37283;49.760;8.648;2022-12-07T19:39:31;9.55;;;6.30;;
51216;SDS011;37283;49.760;8.648;2022-12-07T19:41:58;10.80;;;6.55;;
51216;SDS011;37283;49.760;8.648;2022-12-07T19:44:25;9.45;;;6.38;;
51216;SDS011;37283;49.760;8.648;2022-12-07T19:46:53;10.35;;;6.57;;
51216;SDS011;37283;49.760;8.648;2022-12-07T19:49:30;11.73;;;6.90;;
51216;SDS011;37283;49.760;8.648;2022-12-07T19:51:58;10.00;;;6.88;;
51216;SDS011;37283;49.760;8.648;2022-12-07T19:54:27;9.77;;;6.90;;
51216;SDS011;37283;49.760;8.648;2022-12-07T19:56:54;11.48;;;7.35;;
51216;SDS011;37283;49.760;8.648;2022-12-07T19:59:22;12.55;;;7.80;;
51216;SDS011;37283;49.760;8.648;2022-12-07T20:01:51;9.38;;;7.78;;
51216;SDS011;37283;49.760;8.648;2022-12-07T20:04:18;12.07;;;7.78;;
51216;SDS011;37283;49.760;8.648;2022-12-07T20:06:47;13.65;;;7.75;;
51216;SDS011;37283;49.760;8.648;2022-12-07T20:09:15;13.13;;;7.73;;
51216;SDS011;37283;49.760;8.648;2022-12-07T20:11:42;10.60;;;6.90;;
51216;SDS011;37283;49.760;8.648;2022-12-07T20:14:27;9.13;;;7.20;;
51216;SDS011;37283;49.760;8.648;2022-12-07T20:16:53;10.35;;;7.80;;
51216;SDS011;37283;49.760;8.648;2022-12-07T20:19:20;11.45;;;7.78;;
51216;SDS011;37283;49.760;8.648;2022-12-07T20:21:46;10.20;;;7.40;;
51216;SDS011;37283;49.760;8.648;2022-12-07T20:24:15;12.13;;;7.78;;
51216;SDS011;37283;49.760;8.648;2022-12-07T20:26:45;10.32;;;7.85;;
51216;SDS011;37283;49.760;8.648;2022-12-07T20:29:14;9.27;;;7.35;;
51216;SDS011;37283;49.760;8.648;2022-12-07T20:31:44;11.30;;;7.65;;
51216;SDS011;37283;49.760;8.648;2022-12-07T20:34:12;13.60;;;7.97;;
51216;SDS011;37283;49.760;8.648;2022-12-07T20:36:38;11.10;;;7.63;;
51216;SDS011;37283;49.760;8.648;2022-12-07T20:39:06;11.45;;;8.40;;
51216;SDS011;37283;49.760;8.648;2022-12-07T20:41:32;13.68;;;9.15;;
51216;SDS011;37283;49.760;8.648;2022-12-07T20:44:18;12.48;;;8.43;;
51216;SDS011;37283;49.760;8.648;2022-12-07T20:46:45;12.23;;;9.40;;
51216;SDS011;37283;49.760;8.648;2022-12-07T20:49:12;14.32;;;9.38;;
51216;SDS011;37283;49.760;8.648;2022-12-07T20:51:40;11.02;;;8.50;;
51216;SDS011;37283;49.760;8.648;2022-12-07T20:54:06;12.52;;;8.93;;
51216;SDS011;37283;49.760;8.648;2022-12-07T20:56:33;14.13;;;9.32;;
51216;SDS011;37283;49.760;8.648;2022-12-07T20:59:02;12.82;;;9.75;;
51216;SDS011;37283;49.760;8.648;2022-12-07T21:01:30;13.85;;;10.23;;
51216;SDS011;37283;49.760;8.648;2022-12-07T21:03:57;13.43;;;9.52;;
51216;SDS011;37283;49.760;8.648;2022-12-07T21:06:25;14.55;;;10.45;;
51216;SDS011;37283;49.760;8.648;2022-12-07T21:08:53;11.73;;;9.40;;
51216;SDS011;37283;49.760;8.648;2022-12-07T21:11:21;14.25;;;9.35;;
51216;SDS011;37283;49.760;8.648;2022-12-07T21:13:48;14.48;;;9.88;;
51216;SDS011;37283;49.760;8.648;2022-12-07T21:16:16;14.15;;;9.98;;
51216;SDS011;37283;49.760;8.648;2022-12-07T21:21:13;19.47;;;11.13;;
51216;SDS011;37283;49.760;8.648;2022-12-07T21:23:42;14.73;;;10.77;;
51216;SDS011;37283;49.760;8.648;2022-12-07T21:26:09;16.70;;;10.90;;
51216;SDS011;37283;49.760;8.648;2022-12-07T21:28:36;14.68;;;10.63;;
51216;SDS011;37283;49.760;8.648;2022-12-07T21:31:03;17.25;;;11.20;;
51216;SDS011;37283;49.760;8.648;2022-12-07T21:33:40;14.00;;;10.73;;
51216;SDS011;37283;49.760;8.648;2022-12-07T21:36:13;15.45;;;11.07;;
51216;SDS011;37283;49.760;8.648;2022-12-07T21:38:41;16.77;;;11.48;;
51216;SDS011;37283;49.760;8.648;2022-12-07T21:41:11;14.48;;;10.50;;
51216;SDS011;37283;49.760;8.648;2022-12-07T21:43:39;17.13;;;10.82;;
51216;SDS011;37283;49.760;8.648;2022-12-07T21:46:06;16.63;;;10.80;;
51216;SDS011;37283;49.760;8.648;2022-12-07T21:48:32;16.35;;;11.52;;
51216;SDS011;37283;49.760;8.648;2022-12-07T21:51:06;16.73;;;11.90;;
51216;SDS011;37283;49.760;8.648;2022-12-07T21:53:37;17.10;;;11.63;;
51216;SDS011;37283;49.760;8.648;2022-12-07T21:56:10;15.35;;;11.02;;
51216;SDS011;37283;49.760;8.648;2022-12-07T21:58:39;16.17;;;11.32;;
51216;SDS011;37283;49.760;8.648;2022-12-07T22:01:06;16.35;;;11.40;;
51216;SDS011;37283;49.760;8.648;2022-12-07T22:03:32;14.52;;;11.27;;
51216;SDS011;37283;49.760;8.648;2022-12-07T22:05:59;15.75;;;11.85;;
51216;SDS011;37283;49.760;8.648;2022-12-07T22:08:26;16.65;;;12.30;;
51216;SDS011;37283;49.760;8.648;2022-12-07T22:10:53;20.20;;;11.82;;
51216;SDS011;37283;49.760;8.648;2022-12-07T22:13:19;15.65;;;11.05;;
51216;SDS011;37283;49.760;8.648;2022-12-07T22:15:46;16.33;;;10.98;;
51216;SDS011;37283;49.760;8.648;2022-12-07T22:18:12;14.40;;;11.15;;
51216;SDS011;37283;49.760;8.648;2022-12-07T22:20:39;17.67;;;12.20;;
51216;SDS011;37283;49.760;8.648;2022-12-07T22:23:06;16.15;;;11.25;;
51216;SDS011;37283;49.760;8.648;2022-12-07T22:25:32;16.88;;;11.73;;
51216;SDS011;37283;49.760;8.648;2022-12-07T22:27:59;16.02;;;11.63;;
51216;SDS011;37283;49.760;8.648;2022-12-07T22:30:25;16.00;;;11.90;;
51216;SDS011;37283;49.760;8.648;2022-12-07T22:32:53;14.80;;;11.73;;
51216;SDS011;37283;49.760;8.648;2022-12-07T22:35:20;18.08;;;12.30;;
51216;SDS011;37283;49.760;8.648;2022-12-07T22:37:46;16.15;;;11.82;;
51216;SDS011;37283;49.760;8.648;2022-12-07T22:40:12;20.83;;;12.85;;
51216;SDS011;37283;49.760;8.648;2022-12-07T22:42:39;16.23;;;12.25;;
51216;SDS011;37283;49.760;8.648;2022-12-07T22:45:06;19.80;;;12.38;;
51216;SDS011;37283;49.760;8.648;2022-12-07T22:47:33;17.52;;;12.18;;
51216;SDS011;37283;49.760;8.648;2022-12-07T22:50:00;17.13;;;12.30;;
51216;SDS011;37283;49.760;8.648;2022-12-07T22:52:26;15.85;;;11.75;;
51216;SDS011;37283;49.760;8.648;2022-12-07T22:54:53;19.58;;;12.20;;
51216;SDS011;37283;49.760;8.648;2022-12-07T22:57:19;19.33;;;12.73;;
